Time;durP1;ratioP1;P1;durP2;ratioP2;P2;SDS_P1;SDS_P2;PMS_P1;PMS_P2;Temp;Humidity;BMP_temperature;BMP_pressure;BME280_temperature;BME280_humidity;BME280_pressure;Samples;Min_cycle;Max_cycle;Signal;HPM_P1;HPM_P2
2022/07/20 00:02:07;;;;;;;0.00;0.00;;;;;;;;;;4996689;28;20032;-65
2022/07/20 01:29:06;;;;;;;0.00;0.00;;;;;;;;;;5040032;28;20047;-65
2022/07/20 01:31:31;;;;;;;0.00;0.00;;;;;;;;;;5026683;28;20386;-64
2022/07/20 01:33:56;;;;;;;0.00;0.00;;;;;;;;;;5026895;28;20022;-65
2022/07/20 01:36:21;;;;;;;0.00;0.00;;;;;;;;;;5027035;28;20017;-64
2022/07/20 01:38:47;;;;;;;0.00;0.00;;;;;;;;;;5028635;28;20026;-65
2022/07/20 01:41:12;;;;;;;0.00;0.00;;;;;;;;;;5028843;28;20446;-65
2022/07/20 01:43:37;;;;;;;0.10;0.10;;;;;;;;;;5027921;28;20426;-65
2022/07/20 01:46:02;;;;;;;0.00;0.00;;;;;;;;;;5027405;28;20504;-65
2022/07/20 01:48:28;;;;;;;0.00;0.00;;;;;;;;;;5031193;28;20466;-64
2022/07/20 01:50:53;;;;;;;0.00;0.00;;;;;;;;;;5026831;28;20141;-64
2022/07/20 01:53:18;;;;;;;0.00;0.00;;;;;;;;;;5029509;28;20033;-65
2022/07/20 01:55:43;;;;;;;0.00;0.00;;;;;;;;;;5028212;28;20108;-65
2022/07/20 01:58:08;;;;;;;0.00;0.00;;;;;;;;;;5027825;28;20075;-64
2022/07/20 02:00:34;;;;;;;0.33;0.30;;;;;;;;;;5030602;28;20333;-64
2022/07/20 02:02:59;;;;;;;0.00;0.00;;;;;;;;;;5026822;28;20334;-65
2022/07/20 02:05:24;;;;;;;0.00;0.00;;;;;;;;;;5025343;28;20459;-65
2022/07/20 02:07:49;;;;;;;0.00;0.00;;;;;;;;;;5025300;28;20423;-65
2022/07/20 02:10:15;;;;;;;0.00;0.00;;;;;;;;;;5027081;28;20026;-65
2022/07/20 02:12:40;;;;;;;0.00;0.00;;;;;;;;;;5027773;28;20597;-65
2022/07/20 02:15:06;;;;;;;0.00;0.00;;;;;;;;;;5024964;28;20479;-67
2022/07/20 02:17:32;;;;;;;0.00;0.00;;;;;;;;;;5030321;28;20029;-66
2022/07/20 02:19:57;;;;;;;0.00;0.00;;;;;;;;;;5028514;28;20025;-67
2022/07/20 02:22:22;;;;;;;0.00;0.00;;;;;;;;;;5027712;28;20508;-67
2022/07/20 02:24:47;;;;;;;0.00;0.00;;;;;;;;;;5029430;28;20053;-67
2022/07/20 02:27:13;;;;;;;0.00;0.00;;;;;;;;;;5027674;28;20071;-67
2022/07/20 02:29:38;;;;;;;0.00;0.00;;;;;;;;;;5028668;28;20103;-66
2022/07/20 02:32:03;;;;;;;0.60;0.60;;;;;;;;;;5029796;28;20033;-65
2022/07/20 02:34:29;;;;;;;0.00;0.00;;;;;;;;;;5029952;28;20040;-64
2022/07/20 02:36:54;;;;;;;0.00;0.00;;;;;;;;;;5029354;28;20096;-66
2022/07/20 02:39:19;;;;;;;0.00;0.00;;;;;;;;;;5028815;28;20540;-66
2022/07/20 02:41:44;;;;;;;0.00;0.00;;;;;;;;;;5029513;28;20429;-67
2022/07/20 02:44:09;;;;;;;0.00;0.00;;;;;;;;;;5027954;28;20217;-65
2022/07/20 02:46:35;;;;;;;0.00;0.00;;;;;;;;;;5029055;28;20033;-64
2022/07/20 02:49:00;;;;;;;13.57;1.65;;;;;;;;;;5029898;28;20025;-65
2022/07/20 02:51:25;;;;;;;0.00;0.00;;;;;;;;;;5030130;28;20019;-65
2022/07/20 02:53:50;;;;;;;0.00;0.00;;;;;;;;;;5029560;28;20272;-66
2022/07/20 02:56:16;;;;;;;0.00;0.00;;;;;;;;;;5029391;28;20018;-66
2022/07/20 02:58:41;;;;;;;0.00;0.00;;;;;;;;;;5031320;28;20491;-66
2022/07/20 03:01:06;;;;;;;0.00;0.00;;;;;;;;;;5031165;28;20029;-65
2022/07/20 03:03:31;;;;;;;0.00;0.00;;;;;;;;;;5029310;28;20937;-66
2022/07/20 03:05:56;;;;;;;0.00;0.00;;;;;;;;;;5019999;28;20017;-66
2022/07/20 03:08:22;;;;;;;0.00;0.00;;;;;;;;;;5031406;28;20067;-65
2022/07/20 03:10:47;;;;;;;0.00;0.00;;;;;;;;;;5031772;28;20026;-65
2022/07/20 03:13:12;;;;;;;0.00;0.00;;;;;;;;;;5032006;28;20378;-65
2022/07/20 03:15:38;;;;;;;0.03;0.03;;;;;;;;;;5031699;28;20437;-66
2022/07/20 03:18:03;;;;;;;0.00;0.00;;;;;;;;;;5031358;28;20258;-65
2022/07/20 03:20:29;;;;;;;0.00;0.00;;;;;;;;;;5029175;28;20030;-65
2022/07/20 03:22:55;;;;;;;0.00;0.00;;;;;;;;;;5030485;28;20117;-65
2022/07/20 03:25:21;;;;;;;0.00;0.00;;;;;;;;;;5030825;28;20104;-65
2022/07/20 03:27:46;;;;;;;0.00;0.00;;;;;;;;;;5031368;28;20020;-66
2022/07/20 03:30:12;;;;;;;0.00;0.00;;;;;;;;;;5029362;28;20113;-65
2022/07/20 03:32:37;;;;;;;0.00;0.00;;;;;;;;;;5027358;28;20029;-65
2022/07/20 03:35:03;;;;;;;0.00;0.00;;;;;;;;;;5026706;28;20026;-66
2022/07/20 03:37:28;;;;;;;0.00;0.00;;;;;;;;;;5029634;28;20184;-66
2022/07/20 03:39:53;;;;;;;0.05;0.05;;;;;;;;;;5029125;28;20025;-66
2022/07/20 03:42:19;;;;;;;0.90;0.90;;;;;;;;;;5029004;28;20025;-66
2022/07/20 03:44:44;;;;;;;0.00;0.00;;;;;;;;;;5029263;28;20029;-66
2022/07/20 03:47:09;;;;;;;0.00;0.00;;;;;;;;;;5027736;28;20018;-66
2022/07/20 03:49:34;;;;;;;0.00;0.00;;;;;;;;;;5030624;28;20264;-65
2022/07/20 03:52:00;;;;;;;0.00;0.00;;;;;;;;;;5025253;28;20013;-65
2022/07/20 03:54:25;;;;;;;0.00;0.00;;;;;;;;;;5026703;28;20044;-65
2022/07/20 03:56:50;;;;;;;0.00;0.00;;;;;;;;;;5026490;28;20439;-65
2022/07/20 03:59:15;;;;;;;0.00;0.00;;;;;;;;;;5029985;28;20260;-66
2022/07/20 04:01:40;;;;;;;0.00;0.00;;;;;;;;;;5025366;28;20030;-65
2022/07/20 04:04:06;;;;;;;0.00;0.00;;;;;;;;;;5026625;28;20288;-64
2022/07/20 04:06:31;;;;;;;0.00;0.00;;;;;;;;;;5025122;28;20083;-64
2022/07/20 04:08:57;;;;;;;0.00;0.00;;;;;;;;;;5023826;28;20433;-65
2022/07/20 04:11:22;;;;;;;0.00;0.00;;;;;;;;;;5023849;28;20103;-64
2022/07/20 04:13:47;;;;;;;0.00;0.00;;;;;;;;;;5024130;28;20478;-64
2022/07/20 04:16:12;;;;;;;0.00;0.00;;;;;;;;;;5022897;28;20471;-64
2022/07/20 04:18:38;;;;;;;0.00;0.00;;;;;;;;;;5027673;28;20056;-64
2022/07/20 04:21:03;;;;;;;0.00;0.00;;;;;;;;;;5028232;28;20284;-64
2022/07/20 04:23:28;;;;;;;0.00;0.00;;;;;;;;;;5030491;28;20025;-64
2022/07/20 04:25:53;;;;;;;0.00;0.00;;;;;;;;;;5028150;28;20101;-65
2022/07/20 04:28:19;;;;;;;0.00;0.00;;;;;;;;;;5030703;28;20022;-64
2022/07/20 04:30:44;;;;;;;0.00;0.00;;;;;;;;;;5047270;28;20167;-64
2022/07/20 04:33:09;;;;;;;0.00;0.00;;;;;;;;;;5050352;28;20021;-63
2022/07/20 04:35:34;;;;;;;0.00;0.00;;;;;;;;;;5048424;28;20017;-63
2022/07/20 04:38:00;;;;;;;0.00;0.00;;;;;;;;;;5047146;28;20022;-63
2022/07/20 04:40:25;;;;;;;0.00;0.00;;;;;;;;;;5050124;28;20025;-64
2022/07/20 04:42:50;;;;;;;0.00;0.00;;;;;;;;;;5055019;28;20021;-63
2022/07/20 04:45:15;;;;;;;0.00;0.00;;;;;;;;;;5051306;28;20856;-65
2022/07/20 04:47:41;;;;;;;0.00;0.00;;;;;;;;;;5052788;28;20036;-64
2022/07/20 04:50:06;;;;;;;0.00;0.00;;;;;;;;;;5052418;28;20575;-65
2022/07/20 04:52:31;;;;;;;0.00;0.00;;;;;;;;;;5036261;28;20283;-65
2022/07/20 04:54:56;;;;;;;0.00;0.00;;;;;;;;;;5032826;28;20029;-65
2022/07/20 04:57:22;;;;;;;0.00;0.00;;;;;;;;;;5044743;28;20397;-65
2022/07/20 04:59:47;;;;;;;0.00;0.00;;;;;;;;;;5064823;28;20758;-65
2022/07/20 05:02:12;;;;;;;0.00;0.00;;;;;;;;;;5066661;28;20491;-65
2022/07/20 05:04:37;;;;;;;0.00;0.00;;;;;;;;;;5068242;28;20103;-65
2022/07/20 05:07:03;;;;;;;0.00;0.00;;;;;;;;;;5068964;28;20111;-64
2022/07/20 05:09:28;;;;;;;0.00;0.00;;;;;;;;;;5033228;28;20435;-64
2022/07/20 05:11:53;;;;;;;0.00;0.00;;;;;;;;;;5057920;28;20463;-64
2022/07/20 05:14:18;;;;;;;0.00;0.00;;;;;;;;;;5058887;28;20119;-65
2022/07/20 05:16:45;;;;;;;0.00;0.00;;;;;;;;;;5039655;28;20248;-65
2022/07/20 05:19:11;;;;;;;0.00;0.00;;;;;;;;;;5067412;28;20066;-65
2022/07/20 05:21:36;;;;;;;0.00;0.00;;;;;;;;;;5047899;28;20104;-65
2022/07/20 05:24:01;;;;;;;0.00;0.00;;;;;;;;;;5041166;28;20117;-65
2022/07/20 05:26:26;;;;;;;0.10;0.10;;;;;;;;;;5058076;28;20056;-64
2022/07/20 05:28:52;;;;;;;0.00;0.00;;;;;;;;;;5058147;28;20028;-66
2022/07/20 05:31:18;;;;;;;0.00;0.00;;;;;;;;;;5064224;28;20048;-65
2022/07/20 05:33:43;;;;;;;0.00;0.00;;;;;;;;;;5064025;28;20382;-65
2022/07/20 05:36:09;;;;;;;0.00;0.00;;;;;;;;;;5044090;28;20033;-65
2022/07/20 05:38:34;;;;;;;0.00;0.00;;;;;;;;;;5046207;28;20410;-66
2022/07/20 05:40:59;;;;;;;0.00;0.00;;;;;;;;;;5044719;28;20044;-65
2022/07/20 05:43:25;;;;;;;1.93;1.80;;;;;;;;;;5046594;28;20038;-64
2022/07/20 05:45:50;;;;;;;0.00;0.00;;;;;;;;;;5045468;28;20605;-64
2022/07/20 05:48:15;;;;;;;0.00;0.00;;;;;;;;;;5045159;28;20021;-64
2022/07/20 05:50:41;;;;;;;0.00;0.00;;;;;;;;;;5045052;28;20036;-62
2022/07/20 05:53:07;;;;;;;0.00;0.00;;;;;;;;;;5046974;28;20025;-64
2022/07/20 05:55:32;;;;;;;0.00;0.00;;;;;;;;;;5047676;28;20031;-65
2022/07/20 05:57:58;;;;;;;0.20;0.20;;;;;;;;;;5046546;28;20029;-64
2022/07/20 06:00:23;;;;;;;0.00;0.00;;;;;;;;;;5047393;28;20029;-64
2022/07/20 06:02:48;;;;;;;0.27;0.27;;;;;;;;;;5047716;28;20315;-64
2022/07/20 06:05:13;;;;;;;0.00;0.00;;;;;;;;;;5045709;28;20301;-62
2022/07/20 06:07:38;;;;;;;2.43;2.30;;;;;;;;;;5047256;28;20025;-62
2022/07/20 06:10:04;;;;;;;0.00;0.00;;;;;;;;;;5046189;28;20270;-63
2022/07/20 06:12:29;;;;;;;0.00;0.00;;;;;;;;;;5047287;28;20021;-63
2022/07/20 06:14:54;;;;;;;0.00;0.00;;;;;;;;;;5045761;28;20367;-64
2022/07/20 06:17:20;;;;;;;0.00;0.00;;;;;;;;;;5045619;28;20290;-63
2022/07/20 06:19:45;;;;;;;0.00;0.00;;;;;;;;;;5044439;28;20127;-63
2022/07/20 06:22:10;;;;;;;0.00;0.00;;;;;;;;;;5045823;28;20264;-65
2022/07/20 06:24:35;;;;;;;0.00;0.00;;;;;;;;;;5044827;28;20044;-63
2022/07/20 06:27:00;;;;;;;0.00;0.00;;;;;;;;;;5045209;28;20255;-65
2022/07/20 06:29:26;;;;;;;0.00;0.00;;;;;;;;;;5044124;28;20065;-64
2022/07/20 06:31:51;;;;;;;0.00;0.00;;;;;;;;;;5042682;28;20356;-65
2022/07/20 06:34:16;;;;;;;0.00;0.00;;;;;;;;;;5044002;28;20025;-64
2022/07/20 06:36:44;;;;;;;0.00;0.00;;;;;;;;;;5046986;28;20725;-64
2022/07/20 06:39:09;;;;;;;0.00;0.00;;;;;;;;;;5045504;28;20017;-65
2022/07/20 06:41:35;;;;;;;0.20;0.20;;;;;;;;;;5044279;28;20420;-64
2022/07/20 06:44:00;;;;;;;0.00;0.00;;;;;;;;;;5045018;28;20776;-65
2022/07/20 06:46:25;;;;;;;0.00;0.00;;;;;;;;;;5044120;28;20309;-66
2022/07/20 06:48:50;;;;;;;0.00;0.00;;;;;;;;;;5044034;28;20264;-64
2022/07/20 06:51:15;;;;;;;0.00;0.00;;;;;;;;;;5044333;28;20025;-64
2022/07/20 06:53:41;;;;;;;0.00;0.00;;;;;;;;;;5044283;28;20538;-68
2022/07/20 06:56:06;;;;;;;0.00;0.00;;;;;;;;;;5043108;28;20025;-65
2022/07/20 06:58:31;;;;;;;0.00;0.00;;;;;;;;;;5045036;28;20083;-67
2022/07/20 07:00:56;;;;;;;0.00;0.00;;;;;;;;;;5045019;28;20106;-64
2022/07/20 07:03:22;;;;;;;0.00;0.00;;;;;;;;;;5041771;28;20333;-66
2022/07/20 07:05:47;;;;;;;0.00;0.00;;;;;;;;;;5043810;28;20267;-66
2022/07/20 07:08:12;;;;;;;0.00;0.00;;;;;;;;;;5043177;28;20465;-66
2022/07/20 07:10:37;;;;;;;0.00;0.00;;;;;;;;;;5044074;28;20036;-66
2022/07/20 07:13:03;;;;;;;1.80;1.70;;;;;;;;;;5045220;28;20020;-66
2022/07/20 07:15:28;;;;;;;0.00;0.00;;;;;;;;;;5042909;28;20264;-66
2022/07/20 07:17:53;;;;;;;0.10;0.10;;;;;;;;;;5042789;28;20406;-66
2022/07/20 07:20:18;;;;;;;0.00;0.00;;;;;;;;;;5045129;28;20952;-66
2022/07/20 07:22:44;;;;;;;0.00;0.00;;;;;;;;;;5042780;28;20759;-66
2022/07/20 07:25:09;;;;;;;0.00;0.00;;;;;;;;;;5045927;28;20779;-66
2022/07/20 07:27:34;;;;;;;0.00;0.00;;;;;;;;;;5044082;28;20029;-65
2022/07/20 07:29:59;;;;;;;0.00;0.00;;;;;;;;;;5044775;28;20332;-65
2022/07/20 07:32:25;;;;;;;0.30;0.30;;;;;;;;;;5044832;28;20040;-65
2022/07/20 07:34:50;;;;;;;0.10;0.10;;;;;;;;;;5043315;28;20454;-63
2022/07/20 07:37:15;;;;;;;0.00;0.00;;;;;;;;;;5044518;28;20013;-63
2022/07/20 07:39:41;;;;;;;0.10;0.10;;;;;;;;;;5044468;28;20022;-64
2022/07/20 07:42:06;;;;;;;0.82;0.82;;;;;;;;;;5047312;28;20087;-66
2022/07/20 07:44:32;;;;;;;0.00;0.00;;;;;;;;;;5041513;28;20057;-65
2022/07/20 07:46:57;;;;;;;0.00;0.00;;;;;;;;;;5044985;28;20025;-65
2022/07/20 07:49:22;;;;;;;0.00;0.00;;;;;;;;;;5043332;28;20025;-67
2022/07/20 07:51:47;;;;;;;0.00;0.00;;;;;;;;;;5044257;28;20454;-64
2022/07/20 07:54:13;;;;;;;0.00;0.00;;;;;;;;;;5042894;28;20025;-66
2022/07/20 07:56:38;;;;;;;0.00;0.00;;;;;;;;;;5048844;28;20047;-65
2022/07/20 07:59:03;;;;;;;0.28;0.28;;;;;;;;;;5045443;28;20374;-65
2022/07/20 08:01:28;;;;;;;0.00;0.00;;;;;;;;;;5045210;28;20063;-65
2022/07/20 08:03:54;;;;;;;0.52;0.52;;;;;;;;;;5046635;28;20763;-65
2022/07/20 08:06:19;;;;;;;0.00;0.00;;;;;;;;;;5048808;28;20454;-62
2022/07/20 08:08:44;;;;;;;0.22;0.05;;;;;;;;;;5048807;28;20729;-60
2022/07/20 08:11:09;;;;;;;3.13;0.20;;;;;;;;;;5047338;28;20024;-60
2022/07/20 08:13:35;;;;;;;0.63;0.63;;;;;;;;;;5043994;28;20275;-58
2022/07/20 08:16:00;;;;;;;0.00;0.00;;;;;;;;;;5049623;28;20263;-61
2022/07/20 08:18:26;;;;;;;0.43;0.43;;;;;;;;;;5046428;28;20724;-59
2022/07/20 08:20:51;;;;;;;0.00;0.00;;;;;;;;;;5049787;28;20109;-60
2022/07/20 08:23:16;;;;;;;0.00;0.00;;;;;;;;;;5045863;28;20288;-60
2022/07/20 08:25:42;;;;;;;0.00;0.00;;;;;;;;;;5045138;28;20026;-60
2022/07/20 08:28:14;;;;;;;0.10;0.10;;;;;;;;;;5045842;28;20290;-59
2022/07/20 08:30:40;;;;;;;1.15;0.70;;;;;;;;;;5046365;28;20295;-59
2022/07/20 08:33:06;;;;;;;0.00;0.00;;;;;;;;;;5047412;28;20033;-60
2022/07/20 08:35:32;;;;;;;0.00;0.00;;;;;;;;;;5046792;28;20082;-60
2022/07/20 08:37:57;;;;;;;0.00;0.00;;;;;;;;;;5047332;28;20117;-59
2022/07/20 08:40:22;;;;;;;0.00;0.00;;;;;;;;;;5046264;28;20029;-60
2022/07/20 08:42:48;;;;;;;0.00;0.00;;;;;;;;;;5046480;28;20029;-59
2022/07/20 08:45:13;;;;;;;0.53;0.53;;;;;;;;;;5045408;28;20032;-59
2022/07/20 08:47:39;;;;;;;0.30;0.30;;;;;;;;;;5047920;28;20161;-59
2022/07/20 08:50:05;;;;;;;0.00;0.00;;;;;;;;;;5045846;28;20385;-59
2022/07/20 08:52:30;;;;;;;0.00;0.00;;;;;;;;;;5046891;28;20021;-60
2022/07/20 08:54:55;;;;;;;0.00;0.00;;;;;;;;;;5049134;28;20383;-61
2022/07/20 08:57:21;;;;;;;0.00;0.00;;;;;;;;;;5045601;28;20017;-60
2022/07/20 08:59:46;;;;;;;0.00;0.00;;;;;;;;;;5047111;28;20028;-60
2022/07/20 09:02:12;;;;;;;0.03;0.03;;;;;;;;;;5045760;28;20489;-59
2022/07/20 09:04:54;;;;;;;0.55;0.55;;;;;;;;;;5046708;28;20024;-60
2022/07/20 09:07:37;;;;;;;0.00;0.00;;;;;;;;;;5046428;28;20017;-59
2022/07/20 09:10:03;;;;;;;0.32;0.32;;;;;;;;;;5046252;28;20085;-60
2022/07/20 09:12:29;;;;;;;0.00;0.00;;;;;;;;;;5044760;28;20017;-60
2022/07/20 09:14:54;;;;;;;0.00;0.00;;;;;;;;;;5046903;28;20021;-61
2022/07/20 09:17:23;;;;;;;0.20;0.20;;;;;;;;;;5046453;28;20381;-60
2022/07/20 09:19:55;;;;;;;0.00;0.00;;;;;;;;;;5045786;28;20025;-60
2022/07/20 09:22:34;;;;;;;0.00;0.00;;;;;;;;;;5045821;28;20057;-60
2022/07/20 09:25:07;;;;;;;0.00;0.00;;;;;;;;;;5046293;28;20384;-61
2022/07/20 09:27:33;;;;;;;0.00;0.00;;;;;;;;;;5046566;28;20028;-60
2022/07/20 09:30:06;;;;;;;0.00;0.00;;;;;;;;;;5045963;28;20057;-60
2022/07/20 09:32:47;;;;;;;0.95;0.95;;;;;;;;;;5043374;28;20150;-61
2022/07/20 09:35:12;;;;;;;0.00;0.00;;;;;;;;;;5045090;28;20112;-60
2022/07/20 09:37:38;;;;;;;0.00;0.00;;;;;;;;;;5044287;28;20107;-60
2022/07/20 09:40:04;;;;;;;0.22;0.22;;;;;;;;;;5046192;28;20133;-61
2022/07/20 09:42:36;;;;;;;0.00;0.00;;;;;;;;;;5044033;28;20024;-60
2022/07/20 09:45:20;;;;;;;0.00;0.00;;;;;;;;;;5044889;28;20100;-60
2022/07/20 09:48:03;;;;;;;0.00;0.00;;;;;;;;;;5046311;28;20017;-60
2022/07/20 09:50:30;;;;;;;0.00;0.00;;;;;;;;;;5045464;28;20025;-60
2022/07/20 09:52:56;;;;;;;0.20;0.20;;;;;;;;;;5047221;28;20027;-61
2022/07/20 09:55:22;;;;;;;0.10;0.10;;;;;;;;;;5044160;28;20451;-61
2022/07/20 09:57:48;;;;;;;0.00;0.00;;;;;;;;;;5044074;28;20025;-60
2022/07/20 10:00:14;;;;;;;0.30;0.30;;;;;;;;;;5044947;28;20029;-59
2022/07/20 10:02:40;;;;;;;0.00;0.00;;;;;;;;;;5043856;28;20025;-60
2022/07/20 10:05:06;;;;;;;3.83;0.43;;;;;;;;;;5046486;28;20067;-60
2022/07/20 10:07:31;;;;;;;0.00;0.00;;;;;;;;;;5044528;28;20027;-61
2022/07/20 10:09:57;;;;;;;0.00;0.00;;;;;;;;;;5043612;28;20025;-59
2022/07/20 10:12:23;;;;;;;0.00;0.00;;;;;;;;;;5043791;28;20263;-60
2022/07/20 10:14:51;;;;;;;0.00;0.00;;;;;;;;;;5045756;28;20017;-60
2022/07/20 10:17:16;;;;;;;0.00;0.00;;;;;;;;;;5044017;28;20283;-60
2022/07/20 10:19:46;;;;;;;0.00;0.00;;;;;;;;;;5044649;28;20057;-59
2022/07/20 10:22:11;;;;;;;0.00;0.00;;;;;;;;;;5044103;28;20055;-60
2022/07/20 10:24:38;;;;;;;0.00;0.00;;;;;;;;;;5044129;28;20839;-60
2022/07/20 10:27:16;;;;;;;1.50;1.40;;;;;;;;;;5045494;28;20021;-59
2022/07/20 10:29:44;;;;;;;0.00;0.00;;;;;;;;;;5044802;28;20040;-60
2022/07/20 10:32:09;;;;;;;0.05;0.05;;;;;;;;;;5044302;28;20083;-61
2022/07/20 10:34:35;;;;;;;0.00;0.00;;;;;;;;;;5046147;28;20465;-61
2022/07/20 10:37:18;;;;;;;0.00;0.00;;;;;;;;;;5041590;28;20776;-61
2022/07/20 10:39:45;;;;;;;0.00;0.00;;;;;;;;;;5042488;28;20032;-60
2022/07/20 10:42:19;;;;;;;0.00;0.00;;;;;;;;;;5043185;28;20028;-63
2022/07/20 10:44:44;;;;;;;0.03;0.03;;;;;;;;;;5043045;28;20025;-61
2022/07/20 10:47:30;;;;;;;0.00;0.00;;;;;;;;;;5042608;28;20021;-61
2022/07/20 10:49:59;;;;;;;0.00;0.00;;;;;;;;;;5043877;28;20598;-61
2022/07/20 10:52:25;;;;;;;0.00;0.00;;;;;;;;;;5044350;28;20016;-61
2022/07/20 10:54:51;;;;;;;0.20;0.10;;;;;;;;;;5045516;28;20370;-61
2022/07/20 10:57:16;;;;;;;0.57;0.23;;;;;;;;;;5042201;28;20047;-59
2022/07/20 10:59:41;;;;;;;0.47;0.47;;;;;;;;;;5043541;28;20260;-60
2022/07/20 11:02:07;;;;;;;0.00;0.00;;;;;;;;;;5023749;28;20027;-61
2022/07/20 11:04:41;;;;;;;0.00;0.00;;;;;;;;;;5043174;28;20377;-61
2022/07/20 11:07:06;;;;;;;0.00;0.00;;;;;;;;;;5043343;28;20099;-60
2022/07/20 11:09:31;;;;;;;0.00;0.00;;;;;;;;;;5044316;28;20722;-60
2022/07/20 11:11:57;;;;;;;12.63;3.35;;;;;;;;;;5046051;28;20803;-60
2022/07/20 11:14:22;;;;;;;0.20;0.20;;;;;;;;;;5043816;28;20160;-61
2022/07/20 11:16:53;;;;;;;0.00;0.00;;;;;;;;;;5045462;28;20055;-60
2022/07/20 11:19:18;;;;;;;0.00;0.00;;;;;;;;;;5041209;28;20099;-60
2022/07/20 11:21:44;;;;;;;0.20;0.20;;;;;;;;;;5042990;28;20721;-61
2022/07/20 11:24:20;;;;;;;0.00;0.00;;;;;;;;;;5041416;28;20522;-59
2022/07/20 11:26:45;;;;;;;0.00;0.00;;;;;;;;;;5043606;28;20066;-61
2022/07/20 11:29:14;;;;;;;0.00;0.00;;;;;;;;;;5043584;28;20021;-60
2022/07/20 11:31:39;;;;;;;0.93;0.93;;;;;;;;;;5043602;28;20794;-61
2022/07/20 11:34:05;;;;;;;0.00;0.00;;;;;;;;;;5043259;28;20029;-61
2022/07/20 11:36:31;;;;;;;4.63;4.43;;;;;;;;;;5041681;28;20024;-62
2022/07/20 11:38:59;;;;;;;0.00;0.00;;;;;;;;;;5028125;28;20283;-59
2022/07/20 11:41:30;;;;;;;0.00;0.00;;;;;;;;;;5043254;28;20029;-60
2022/07/20 11:43:55;;;;;;;0.28;0.25;;;;;;;;;;5044718;28;20032;-61
2022/07/20 11:46:23;;;;;;;1.52;0.60;;;;;;;;;;5042180;28;20021;-61
2022/07/20 11:48:56;;;;;;;0.15;0.15;;;;;;;;;;5046364;28;20024;-60
2022/07/20 11:51:21;;;;;;;0.00;0.00;;;;;;;;;;5044356;28;20066;-60
2022/07/20 11:53:46;;;;;;;0.00;0.00;;;;;;;;;;5042615;28;20108;-60
2022/07/20 11:56:13;;;;;;;0.00;0.00;;;;;;;;;;5043870;28;20060;-60
2022/07/20 11:58:38;;;;;;;0.00;0.00;;;;;;;;;;5045577;28;20418;-60
2022/07/20 12:01:05;;;;;;;0.00;0.00;;;;;;;;;;5044626;28;20078;-60
2022/07/20 12:03:31;;;;;;;0.00;0.00;;;;;;;;;;5041593;28;20025;-60
2022/07/20 12:06:02;;;;;;;0.00;0.00;;;;;;;;;;5042671;28;20028;-61
2022/07/20 12:08:33;;;;;;;0.00;0.00;;;;;;;;;;5044437;28;20028;-61
2022/07/20 12:10:59;;;;;;;0.00;0.00;;;;;;;;;;5035474;28;20025;-60
2022/07/20 12:13:24;;;;;;;0.00;0.00;;;;;;;;;;5042512;28;20587;-60
2022/07/20 12:15:53;;;;;;;0.10;0.10;;;;;;;;;;5042885;28;20021;-60
2022/07/20 12:18:37;;;;;;;0.00;0.00;;;;;;;;;;5044894;28;20033;-60
2022/07/20 12:21:03;;;;;;;0.00;0.00;;;;;;;;;;5043398;28;20538;-59
2022/07/20 12:23:29;;;;;;;0.00;0.00;;;;;;;;;;5044543;28;20082;-60
2022/07/20 12:25:54;;;;;;;0.10;0.10;;;;;;;;;;5044735;28;20021;-60
2022/07/20 12:28:28;;;;;;;0.00;0.00;;;;;;;;;;5044631;28;20554;-61
2022/07/20 12:31:07;;;;;;;0.00;0.00;;;;;;;;;;5042779;28;20286;-61
2022/07/20 12:33:32;;;;;;;0.00;0.00;;;;;;;;;;5039625;28;20078;-60
2022/07/20 12:36:03;;;;;;;0.00;0.00;;;;;;;;;;5044543;28;20025;-59
2022/07/20 12:38:31;;;;;;;0.00;0.00;;;;;;;;;;5043834;28;20272;-59
2022/07/20 12:40:56;;;;;;;;;;;;;;;;;;5044442;28;20839;-60
2022/07/20 12:43:26;;;;;;;0.45;0.45;;;;;;;;;;5047650;28;19924;-60
2022/07/20 12:45:54;;;;;;;0.17;0.17;;;;;;;;;;5045518;28;20032;-59
2022/07/20 12:48:19;;;;;;;0.00;0.00;;;;;;;;;;5046355;28;20021;-60
2022/07/20 12:50:44;;;;;;;1.40;1.40;;;;;;;;;;5047500;28;20040;-60
2022/07/20 12:53:10;;;;;;;0.28;0.13;;;;;;;;;;5045549;28;20036;-60
2022/07/20 12:55:38;;;;;;;0.00;0.00;;;;;;;;;;5047715;28;20470;-60
2022/07/20 12:58:03;;;;;;;0.00;0.00;;;;;;;;;;5044591;28;20163;-60
2022/07/20 13:00:28;;;;;;;0.40;0.40;;;;;;;;;;5047281;28;20477;-60
2022/07/20 13:02:54;;;;;;;0.00;0.00;;;;;;;;;;5045186;28;20025;-60
2022/07/20 13:05:19;;;;;;;0.10;0.10;;;;;;;;;;5045486;28;20021;-58
2022/07/20 13:07:46;;;;;;;0.40;0.35;;;;;;;;;;5045059;28;20313;-59
2022/07/20 13:10:15;;;;;;;0.32;0.32;;;;;;;;;;5046940;28;20111;-60
2022/07/20 13:12:40;;;;;;;;;;;;;;;;;;5046483;28;20363;-59
2022/07/20 13:15:06;;;;;;;0.20;0.20;;;;;;;;;;5045284;28;20273;-59
2022/07/20 13:17:32;;;;;;;0.28;0.28;;;;;;;;;;5045985;28;20032;-59
2022/07/20 13:19:57;;;;;;;0.32;0.32;;;;;;;;;;5041797;28;20021;-60
2022/07/20 13:22:22;;;;;;;0.10;0.10;;;;;;;;;;5044755;28;20032;-59
2022/07/20 13:24:47;;;;;;;0.00;0.00;;;;;;;;;;5047081;28;20799;-60
2022/07/20 13:27:13;;;;;;;0.00;0.00;;;;;;;;;;5043892;28;20612;-59
2022/07/20 13:29:38;;;;;;;0.00;0.00;;;;;;;;;;5045843;28;20043;-60
2022/07/20 13:32:06;;;;;;;0.00;0.00;;;;;;;;;;5045441;28;20432;-59
2022/07/20 13:34:32;;;;;;;0.00;0.00;;;;;;;;;;5039131;28;20291;-60
2022/07/20 13:36:57;;;;;;;0.00;0.00;;;;;;;;;;5047114;28;20064;-61
2022/07/20 13:39:22;;;;;;;0.00;0.00;;;;;;;;;;5046597;28;20036;-59
2022/07/20 13:41:50;;;;;;;0.22;0.22;;;;;;;;;;5045908;28;20171;-61
2022/07/20 13:44:16;;;;;;;0.00;0.00;;;;;;;;;;5044183;28;20032;-60
2022/07/20 13:46:44;;;;;;;0.00;0.00;;;;;;;;;;5046861;28;20025;-59
2022/07/20 13:49:10;;;;;;;0.00;0.00;;;;;;;;;;5041796;28;20100;-60
2022/07/20 13:51:35;;;;;;;0.10;0.10;;;;;;;;;;5045046;28;20060;-59
2022/07/20 13:54:00;;;;;;;0.00;0.00;;;;;;;;;;5042175;28;20445;-60
2022/07/20 13:56:30;;;;;;;0.63;0.63;;;;;;;;;;5044779;28;20584;-61
2022/07/20 13:58:55;;;;;;;0.20;0.20;;;;;;;;;;5043212;28;20302;-60
2022/07/20 14:01:20;;;;;;;0.10;0.10;;;;;;;;;;5040968;28;20479;-61
2022/07/20 14:03:45;;;;;;;0.00;0.00;;;;;;;;;;5045603;28;20104;-61
2022/07/20 14:06:12;;;;;;;0.25;0.25;;;;;;;;;;5043951;28;20375;-62
2022/07/20 14:08:37;;;;;;;0.00;0.00;;;;;;;;;;5045735;28;20104;-60
2022/07/20 14:11:02;;;;;;;0.00;0.00;;;;;;;;;;5045824;28;20028;-61
2022/07/20 14:13:27;;;;;;;0.00;0.00;;;;;;;;;;5040746;28;20271;-61
2022/07/20 14:15:53;;;;;;;0.15;0.15;;;;;;;;;;5045665;28;20259;-62
2022/07/20 14:18:18;;;;;;;0.00;0.00;;;;;;;;;;5045006;28;20095;-62
2022/07/20 14:20:43;;;;;;;0.00;0.00;;;;;;;;;;5044257;28;20326;-61
2022/07/20 14:23:11;;;;;;;0.00;0.00;;;;;;;;;;5044278;28;20029;-61
2022/07/20 14:25:37;;;;;;;0.00;0.00;;;;;;;;;;5043857;28;20012;-60
2022/07/20 14:28:02;;;;;;;0.38;0.38;;;;;;;;;;5043939;28;20477;-59
2022/07/20 14:30:28;;;;;;;0.28;0.28;;;;;;;;;;5044256;28;20137;-59
2022/07/20 14:32:53;;;;;;;0.00;0.00;;;;;;;;;;5043890;28;20040;-60
2022/07/20 14:35:18;;;;;;;0.10;0.05;;;;;;;;;;5044182;28;20035;-59
2022/07/20 14:37:43;;;;;;;0.00;0.00;;;;;;;;;;5045581;28;20496;-61
2022/07/20 14:40:09;;;;;;;0.00;0.00;;;;;;;;;;5044860;28;20565;-61
2022/07/20 14:42:35;;;;;;;0.00;0.00;;;;;;;;;;5045274;28;20024;-60
2022/07/20 14:45:00;;;;;;;0.00;0.00;;;;;;;;;;5045153;28;20108;-60
2022/07/20 14:47:25;;;;;;;0.00;0.00;;;;;;;;;;5043249;28;20021;-61
2022/07/20 14:49:50;;;;;;;0.37;0.30;;;;;;;;;;5045087;28;20512;-60
2022/07/20 14:52:16;;;;;;;0.00;0.00;;;;;;;;;;5044597;28;20705;-61
2022/07/20 14:54:41;;;;;;;0.00;0.00;;;;;;;;;;5045204;28;20330;-62
2022/07/20 14:57:06;;;;;;;1.80;0.40;;;;;;;;;;5042944;28;20749;-62
2022/07/20 14:59:31;;;;;;;0.00;0.00;;;;;;;;;;5043565;28;20673;-60
2022/07/20 15:01:57;;;;;;;0.00;0.00;;;;;;;;;;5041070;28;20724;-61
2022/07/20 15:04:22;;;;;;;0.10;0.10;;;;;;;;;;5042774;28;20032;-60
2022/07/20 15:06:48;;;;;;;0.00;0.00;;;;;;;;;;5043647;28;20026;-61
2022/07/20 15:09:13;;;;;;;0.00;0.00;;;;;;;;;;5043103;28;20481;-61
2022/07/20 15:11:38;;;;;;;2.07;0.47;;;;;;;;;;5046661;28;20664;-61
2022/07/20 15:14:04;;;;;;;0.00;0.00;;;;;;;;;;5044311;28;20291;-61
2022/07/20 15:16:29;;;;;;;0.00;0.00;;;;;;;;;;5042369;28;20021;-61
2022/07/20 15:18:54;;;;;;;0.00;0.00;;;;;;;;;;5044228;28;20021;-60
2022/07/20 15:21:21;;;;;;;0.70;0.35;;;;;;;;;;5040720;28;20024;-61
2022/07/20 15:23:49;;;;;;;0.38;0.38;;;;;;;;;;5042943;28;20103;-59
2022/07/20 15:26:15;;;;;;;0.15;0.00;;;;;;;;;;5042320;28;20074;-60
2022/07/20 15:28:41;;;;;;;0.67;0.67;;;;;;;;;;5044773;28;20029;-59
2022/07/20 15:31:07;;;;;;;0.20;0.20;;;;;;;;;;5046805;28;20287;-60
2022/07/20 15:33:33;;;;;;;0.00;0.00;;;;;;;;;;5046026;28;20398;-60
2022/07/20 15:35:59;;;;;;;0.25;0.25;;;;;;;;;;5047311;28;20029;-60
2022/07/20 15:38:24;;;;;;;0.20;0.20;;;;;;;;;;5029556;28;20020;-61
2022/07/20 15:40:49;;;;;;;0.00;0.00;;;;;;;;;;5047991;28;20023;-61
2022/07/20 15:43:14;;;;;;;0.00;0.00;;;;;;;;;;5046230;28;20984;-61
2022/07/20 15:45:43;;;;;;;0.00;0.00;;;;;;;;;;5047532;28;20248;-60
2022/07/20 15:48:08;;;;;;;0.13;0.13;;;;;;;;;;5047428;28;20254;-61
2022/07/20 15:50:33;;;;;;;0.20;0.20;;;;;;;;;;5028901;28;20100;-60
2022/07/20 15:52:58;;;;;;;2.03;1.93;;;;;;;;;;5048259;28;20412;-61
2022/07/20 15:55:24;;;;;;;5.33;2.07;;;;;;;;;;5046156;28;20814;-61
2022/07/20 15:57:49;;;;;;;0.00;0.00;;;;;;;;;;5044978;28;20279;-61
2022/07/20 16:00:15;;;;;;;2.57;2.37;;;;;;;;;;5044982;28;20037;-61
2022/07/20 16:02:40;;;;;;;0.55;0.55;;;;;;;;;;5047009;28;20256;-60